Time;durP1;ratioP1;P1;durP2;ratioP2;P2;SDS_P1;SDS_P2;PMS_P1;PMS_P2;Temp;Humidity;BMP_temperature;BMP_pressure;BME280_temperature;BME280_humidity;BME280_pressure;Samples;Min_cycle;Max_cycle;Signal;HPM_P1;HPM_P2
2023/05/08 00:02:17;;;;;;;5.20;1.92;;;;;;;21.25;57.44;100884.03;5082336;28;20052;-84
2023/05/08 00:05:11;;;;;;;4.22;1.30;;;;;;;21.26;57.07;100895.91;5086099;28;20043;-85
2023/05/08 00:08:05;;;;;;;3.10;1.33;;;;;;;21.25;57.13;100900.66;5084550;28;20047;-82
2023/05/08 00:11:00;;;;;;;4.50;1.55;;;;;;;21.26;57.22;100899.47;5081231;28;20043;-83
2023/05/08 00:13:50;;;;;;;2.58;1.20;;;;;;;21.26;57.28;100902.25;5084988;28;20067;-83
2023/05/08 00:16:45;;;;;;;2.42;1.25;;;;;;;21.23;57.28;100894.69;5083651;28;20522;-84
2023/05/08 00:19:39;;;;;;;3.95;1.27;;;;;;;21.23;57.55;100880.84;5080797;28;20052;-84
2023/05/08 00:22:34;;;;;;;3.22;1.10;;;;;;;21.22;57.75;100873.75;5083099;28;20047;-83
2023/05/08 00:25:26;;;;;;;2.15;1.10;;;;;;;21.25;57.50;100861.13;5081256;28;20044;-84
2023/05/08 00:28:21;;;;;;;2.97;1.30;;;;;;;21.19;57.91;100863.44;5084361;28;20044;-84
2023/05/08 00:31:16;;;;;;;4.85;1.88;;;;;;;21.18;58.06;100872.91;5081968;28;20048;-84
2023/05/08 00:34:11;;;;;;;2.58;1.60;;;;;;;21.21;57.96;100854.78;5079265;28;20047;-83
2023/05/08 00:37:05;;;;;;;3.10;1.08;;;;;;;21.18;57.91;100848.03;5084959;28;20052;-84
2023/05/08 00:40:00;;;;;;;3.08;1.30;;;;;;;21.17;57.95;100849.22;5081103;28;20040;-84
2023/05/08 00:42:52;;;;;;;4.88;1.42;;;;;;;21.19;58.14;100837.75;5081046;28;20048;-83
2023/05/08 00:45:48;;;;;;;2.67;1.38;;;;;;;21.19;57.97;100840.53;5082622;28;20043;-83
2023/05/08 00:48:45;;;;;;;3.03;1.20;;;;;;;21.16;58.04;100839.34;5079492;28;20051;-84
2023/05/08 00:51:37;;;;;;;2.72;1.30;;;;;;;21.18;58.48;100839.72;5082667;28;20047;-84
2023/05/08 00:54:30;;;;;;;2.13;1.08;;;;;;;21.16;58.23;100847.63;5081025;28;20067;-83
2023/05/08 00:57:25;;;;;;;2.95;1.02;;;;;;;21.16;58.47;100844.06;5083825;28;20060;-84
2023/05/08 01:00:21;;;;;;;0.93;0.90;;;;;;;21.16;58.26;100836.56;5083340;28;20044;-84
2023/05/08 01:03:16;;;;;;;1.45;1.10;;;;;;;21.17;58.13;100843.69;5079117;28;20044;-81
2023/05/08 01:06:10;;;;;;;8.48;1.73;;;;;;;21.17;58.31;100831.84;5083187;28;20048;-84
2023/05/08 01:09:05;;;;;;;1.73;0.90;;;;;;;21.16;58.50;100830.25;5082506;28;20038;-84
2023/05/08 01:12:12;;;;;;;1.25;0.88;;;;;;;21.11;58.46;100817.53;5084447;28;20048;-84
2023/05/08 01:15:15;;;;;;;1.20;0.80;;;;;;;21.08;58.53;100812.75;5081551;28;20048;-84
2023/05/08 01:18:26;;;;;;;1.75;0.90;;;;;;;21.09;58.73;100817.13;5085308;28;20514;-84
2023/05/08 01:21:39;;;;;;;0.75;0.57;;;;;;;21.08;58.84;100818.28;5079572;28;20067;-84
2023/05/08 01:25:00;;;;;;;2.45;0.77;;;;;;;21.09;58.71;100814.34;5079489;28;20056;-82
2023/05/08 01:28:31;;;;;;;3.92;1.65;;;;;;;21.08;58.70;100817.53;5069909;28;20051;-83
2023/05/08 01:31:34;;;;;;;3.55;0.90;;;;;;;21.07;58.94;100819.50;5075048;28;20040;-84
2023/05/08 01:34:32;;;;;;;4.78;1.10;;;;;;;21.06;59.21;100825.38;5059627;28;20048;-84
2023/05/08 01:37:29;;;;;;;3.90;1.00;;;;;;;21.04;58.88;100817.47;5063421;28;20412;-84
2023/05/08 01:40:29;;;;;;;2.33;0.73;;;;;;;21.06;58.86;100822.63;5061170;28;20048;-84
2023/05/08 01:43:31;;;;;;;2.78;1.10;;;;;;;21.03;59.32;100826.16;5058148;28;20067;-84
2023/05/08 01:46:23;;;;;;;2.17;0.93;;;;;;;21.02;59.48;100819.84;5059424;28;20044;-84
2023/05/08 01:49:16;;;;;;;;;;;;;;;21.00;59.41;100824.94;5059548;28;20052;-84
2023/05/08 01:52:17;;;;;;;4.50;0.90;;;;;;;21.00;59.56;100830.47;5061481;28;19913;-83
2023/05/08 01:55:14;;;;;;;2.40;0.93;;;;;;;21.02;59.62;100830.09;5078221;28;20047;-84
2023/05/08 01:58:11;;;;;;;2.67;1.10;;;;;;;20.97;59.66;100828.50;5078754;28;20059;-83
2023/05/08 02:01:05;;;;;;;4.10;1.85;;;;;;;20.95;59.53;100828.06;5079283;28;20526;-83
2023/05/08 02:04:01;;;;;;;4.60;1.17;;;;;;;20.91;59.67;100835.53;5077939;28;20047;-83
2023/05/08 02:06:57;;;;;;;3.72;1.10;;;;;;;20.90;59.60;100831.19;5080158;28;20051;-84
2023/05/08 02:09:52;;;;;;;4.22;1.23;;;;;;;20.92;59.94;100837.13;5078039;28;20044;-83
2023/05/08 02:12:48;;;;;;;2.95;1.30;;;;;;;20.91;60.01;100841.88;5079419;28;20055;-83
2023/05/08 02:15:43;;;;;;;1.75;0.90;;;;;;;20.91;59.87;100835.53;5079335;28;20047;-83
2023/05/08 02:18:41;;;;;;;1.17;0.90;;;;;;;20.89;59.89;100835.13;5083304;28;20048;-83
2023/05/08 02:21:34;;;;;;;1.35;1.00;;;;;;;20.90;59.94;100836.72;5080318;28;20529;-83
2023/05/08 02:24:27;;;;;;;2.40;0.80;;;;;;;20.85;60.10;100839.81;5069380;28;20059;-84
2023/05/08 02:27:23;;;;;;;1.30;0.80;;;;;;;20.88;60.17;100848.16;5069606;28;20032;-83
2023/05/08 02:30:18;;;;;;;1.98;0.80;;;;;;;20.88;59.94;100847.34;5077907;28;20047;-83
2023/05/08 02:33:14;;;;;;;2.22;1.02;;;;;;;20.87;59.88;100862.38;5076749;28;20059;-84
2023/05/08 02:36:09;;;;;;;2.38;1.13;;;;;;;20.87;59.88;100865.94;5084355;28;20048;-85
2023/05/08 02:39:04;;;;;;;2.55;1.17;;;;;;;20.83;60.06;100864.28;5077419;28;20411;-85
2023/05/08 02:41:59;;;;;;;1.15;0.70;;;;;;;20.84;60.30;100863.13;5080649;28;20538;-85
2023/05/08 02:44:54;;;;;;;3.30;1.27;;;;;;;20.83;60.43;100861.53;5075374;28;20529;-85
2023/05/08 02:47:59;;;;;;;2.38;1.50;;;;;;;20.82;60.22;100865.47;5061972;28;20056;-84
2023/05/08 02:51:17;;;;;;;2.10;1.33;;;;;;;20.83;60.14;100867.06;5058399;28;20048;-85
2023/05/08 02:54:20;;;;;;;2.47;1.10;;;;;;;20.83;60.26;100869.81;5063590;28;20051;-85
2023/05/08 02:57:22;;;;;;;3.08;1.48;;;;;;;20.81;60.40;100861.13;5058873;28;20044;-83
2023/05/08 03:00:31;;;;;;;2.35;1.35;;;;;;;20.78;60.54;100864.63;5057948;28;20052;-84
2023/05/08 03:03:25;;;;;;;4.25;1.08;;;;;;;20.79;60.80;100866.22;5072911;28;20044;-84
2023/05/08 03:06:20;;;;;;;1.23;0.70;;;;;;;20.78;60.58;100862.66;5080996;28;20541;-82
2023/05/08 03:09:18;;;;;;;4.35;0.90;;;;;;;20.79;60.75;100866.22;5085864;28;20278;-82
2023/05/08 03:12:22;;;;;;;2.15;0.85;;;;;;;20.78;60.68;100870.97;5081207;28;20043;-82
2023/05/08 03:15:22;;;;;;;1.80;0.90;;;;;;;20.79;61.01;100869.00;5083035;28;20063;-84
2023/05/08 03:18:26;;;;;;;2.00;0.98;;;;;;;20.76;60.83;100872.53;5086803;28;20415;-84
2023/05/08 03:21:22;;;;;;;3.33;0.82;;;;;;;20.78;60.99;100872.94;5080527;28;20059;-85
2023/05/08 03:24:17;;;;;;;1.00;0.77;;;;;;;20.76;61.21;100872.53;5085601;28;20043;-85
2023/05/08 03:27:12;;;;;;;1.95;0.80;;;;;;;20.76;61.17;100881.63;5085289;28;20039;-84
2023/05/08 03:30:08;;;;;;;2.35;1.45;;;;;;;20.76;60.91;100878.84;5086840;28;20052;-85
2023/05/08 03:33:04;;;;;;;3.75;0.80;;;;;;;20.73;61.32;100879.59;5080448;28;20051;-84
2023/05/08 03:36:00;;;;;;;2.65;1.35;;;;;;;20.75;61.16;100882.00;5080879;28;20411;-84
2023/05/08 03:38:53;;;;;;;2.88;1.15;;;;;;;20.74;61.21;100886.72;5081159;28;20538;-84
2023/05/08 03:41:48;;;;;;;1.95;0.80;;;;;;;20.73;61.43;100889.84;5084946;28;20056;-85
2023/05/08 03:44:43;;;;;;;2.58;0.93;;;;;;;20.70;61.15;100885.09;5083409;28;20408;-84
2023/05/08 03:47:39;;;;;;;4.35;1.17;;;;;;;20.72;61.24;100902.09;5081398;28;20055;-85
2023/05/08 03:50:32;;;;;;;2.38;1.17;;;;;;;20.69;61.65;100905.63;5084945;28;20048;-84
2023/05/08 03:53:26;;;;;;;1.90;1.13;;;;;;;20.68;61.49;100915.88;5079925;28;20044;-84
2023/05/08 03:56:16;;;;;;;;;;;;;;;20.66;61.57;100917.44;5081088;28;20040;-83
2023/05/08 03:59:22;;;;;;;1.85;1.05;;;;;;;20.66;61.68;100921.00;5083400;28;19913;-84
2023/05/08 04:02:44;;;;;;;2.28;1.20;;;;;;;20.67;61.37;100939.16;5080758;28;20043;-84
2023/05/08 04:05:48;;;;;;;1.17;0.95;;;;;;;20.64;61.58;100936.34;5082975;28;20051;-82
2023/05/08 04:08:49;;;;;;;2.17;1.25;;;;;;;20.65;61.43;100946.25;5079589;28;20059;-84
2023/05/08 04:11:53;;;;;;;4.30;1.13;;;;;;;20.59;61.81;100951.31;5083426;28;20048;-84
2023/05/08 04:14:54;;;;;;;2.73;1.50;;;;;;;20.59;61.93;100954.06;5079294;28;20059;-82
2023/05/08 04:17:56;;;;;;;4.53;0.93;;;;;;;20.60;62.06;100963.16;5083659;28;20047;-84
2023/05/08 04:20:51;;;;;;;1.73;1.38;;;;;;;20.60;62.30;100963.94;5081066;28;20526;-84
2023/05/08 04:23:46;;;;;;;;;;;;;;;20.59;62.45;100973.41;5081156;28;20047;-83
2023/05/08 04:26:40;;;;;;;2.70;1.35;;;;;;;20.58;62.38;100971.00;5082270;28;19912;-84
2023/05/08 04:29:36;;;;;;;3.53;1.30;;;;;;;20.59;62.49;100981.69;5102678;22;20053;-82
2023/05/08 04:32:32;;;;;;;1.73;1.50;;;;;;;20.58;62.38;100987.59;5023267;28;20053;-83
2023/05/08 04:35:26;;;;;;;2.83;1.63;;;;;;;20.55;62.28;100983.63;5028765;28;20401;-82
2023/05/08 04:38:18;;;;;;;2.28;1.90;;;;;;;20.54;62.75;100984.00;5024207;28;20057;-83
2023/05/08 04:41:13;;;;;;;2.22;1.73;;;;;;;20.56;62.54;100989.97;5023064;28;20041;-82
2023/05/08 04:44:05;;;;;;;;;;;;;;;20.53;62.44;100996.22;5023951;28;20048;-84
2023/05/08 04:47:00;;;;;;;3.13;1.05;;;;;;;20.51;62.41;101004.09;5017767;28;19913;-82
2023/05/08 04:49:54;;;;;;;2.10;1.73;;;;;;;20.52;62.53;101006.47;5016673;28;20049;-81
2023/05/08 04:52:50;;;;;;;1.65;1.45;;;;;;;20.48;62.56;101008.41;5021829;28;20520;-81
2023/05/08 04:55:44;;;;;;;4.20;1.50;;;;;;;20.49;62.61;101016.31;5024445;28;20064;-83
2023/05/08 04:58:39;;;;;;;5.32;1.95;;;;;;;20.45;62.94;101011.91;5023170;28;20045;-84
2023/05/08 05:01:34;;;;;;;4.80;2.17;;;;;;;20.43;63.10;101019.78;5008666;28;20409;-82
2023/05/08 05:04:29;;;;;;;4.55;2.72;;;;;;;20.39;63.46;101014.22;5011399;28;20528;-82
2023/05/08 05:07:21;;;;;;;6.70;4.57;;;;;;;20.33;63.98;101012.94;5018560;28;20053;-82
2023/05/08 05:10:16;;;;;;;14.90;5.57;;;;;;;20.31;64.07;101015.28;5014715;28;20041;-81
2023/05/08 05:13:06;;;;;;;6.43;3.83;;;;;;;20.25;64.88;101013.19;5010294;28;20030;-83
2023/05/08 05:16:02;;;;;;;6.07;5.38;;;;;;;20.25;64.30;101016.75;5015127;28;20117;-84
2023/05/08 05:18:54;;;;;;;5.70;4.75;;;;;;;20.24;64.50;101014.34;5018588;28;20528;-83
2023/05/08 05:21:46;;;;;;;4.95;4.15;;;;;;;20.23;64.37;101021.03;5020469;28;20048;-83
2023/05/08 05:24:38;;;;;;;7.35;6.55;;;;;;;20.21;64.45;101018.69;5014651;28;20057;-83
2023/05/08 05:27:33;;;;;;;8.40;6.68;;;;;;;20.21;64.27;101021.44;5020670;28;20045;-85
2023/05/08 05:30:25;;;;;;;8.00;6.63;;;;;;;20.18;64.23;101016.63;5014094;28;20052;-82
2023/05/08 05:33:19;;;;;;;5.32;4.38;;;;;;;20.21;63.97;101015.13;5023212;28;20401;-81
2023/05/08 05:36:11;;;;;;;8.05;4.95;;;;;;;20.15;64.32;101017.41;5019242;28;20053;-80
2023/05/08 05:39:06;;;;;;;6.80;6.15;;;;;;;20.17;64.30;101026.09;5019743;28;20040;-82
2023/05/08 05:42:01;;;;;;;9.70;5.25;;;;;;;20.15;64.43;101020.16;5021150;28;20044;-81
2023/05/08 05:44:53;;;;;;;7.88;4.63;;;;;;;20.13;64.38;101021.69;5019501;28;20524;-80
2023/05/08 05:47:51;;;;;;;4.88;4.38;;;;;;;20.12;64.55;101022.84;5023303;28;20088;-82
2023/05/08 05:50:46;;;;;;;6.10;4.97;;;;;;;20.09;64.90;101024.41;5019261;28;20065;-81
2023/05/08 05:53:38;;;;;;;7.57;3.97;;;;;;;20.09;64.47;101016.13;5021171;28;20045;-81
2023/05/08 05:56:33;;;;;;;3.83;3.40;;;;;;;20.08;64.05;101014.53;5019719;28;20045;-80
2023/05/08 05:59:27;;;;;;;5.68;4.25;;;;;;;20.10;64.38;101028.75;5016388;28;20053;-81
2023/05/08 06:02:19;;;;;;;4.75;4.18;;;;;;;20.08;64.45;101017.28;5019714;28;20520;-82
2023/05/08 06:05:12;;;;;;;5.38;4.07;;;;;;;20.07;64.50;101015.69;5015953;28;20118;-81
2023/05/08 06:08:01;;;;;;;5.57;3.08;;;;;;;20.06;64.27;101012.13;5018299;28;20060;-82
2023/05/08 06:10:56;;;;;;;6.20;3.13;;;;;;;20.07;64.41;101016.47;5019951;28;20049;-81
2023/05/08 06:13:54;;;;;;;2.97;2.67;;;;;;;20.07;64.80;101015.69;5015871;28;20045;-82
2023/05/08 06:16:48;;;;;;;5.40;3.85;;;;;;;20.07;64.75;101023.97;5015027;28;20053;-81
2023/05/08 06:19:40;;;;;;;3.60;2.50;;;;;;;20.08;64.90;101020.03;5013485;28;20045;-80
2023/05/08 06:22:32;;;;;;;6.03;5.53;;;;;;;20.10;64.97;101017.72;5011529;28;20041;-78
2023/05/08 06:25:26;;;;;;;10.98;5.55;;;;;;;20.08;64.88;101020.84;5012434;28;20037;-79
2023/05/08 06:28:18;;;;;;;4.88;4.32;;;;;;;20.09;64.70;101027.16;5012140;28;20040;-81
2023/05/08 06:31:13;;;;;;;5.47;5.03;;;;;;;20.10;64.66;101023.25;5013152;28;20053;-81
2023/05/08 06:34:09;;;;;;;5.15;4.75;;;;;;;20.11;64.80;101027.59;5022050;28;20049;-81
2023/05/08 06:37:11;;;;;;;5.43;4.97;;;;;;;20.11;64.64;101022.06;5017753;28;20508;-82
2023/05/08 06:40:05;;;;;;;3.55;3.30;;;;;;;20.10;64.73;101022.44;5011625;28;20045;-81
2023/05/08 06:43:00;;;;;;;5.18;2.53;;;;;;;20.09;64.56;101021.66;5017334;28;20037;-82
2023/05/08 06:45:59;;;;;;;6.32;5.95;;;;;;;20.05;64.58;101016.06;5013684;28;20053;-81
2023/05/08 06:48:51;;;;;;;4.18;3.38;;;;;;;20.11;64.85;101030.38;5010610;28;20045;-81
2023/05/08 06:51:46;;;;;;;4.80;3.33;;;;;;;20.13;65.09;101036.28;5021210;28;20053;-80
2023/05/08 06:54:41;;;;;;;6.65;3.42;;;;;;;20.16;65.05;101035.56;5014817;28;20417;-80
2023/05/08 06:57:35;;;;;;;2.72;2.40;;;;;;;20.16;64.47;101032.00;5017502;28;20053;-82
2023/05/08 07:00:30;;;;;;;5.88;4.63;;;;;;;20.15;64.40;101033.97;5013282;28;20539;-79
2023/05/08 07:03:22;;;;;;;6.88;6.30;;;;;;;20.14;64.11;101035.13;5017867;28;20417;-80
2023/05/08 07:06:16;;;;;;;6.80;4.00;;;;;;;20.15;64.48;101041.44;5015034;28;20053;-78
2023/05/08 07:09:11;;;;;;;4.65;4.15;;;;;;;20.14;64.26;101037.88;5016685;28;20049;-82
2023/05/08 07:12:05;;;;;;;3.58;2.08;;;;;;;20.14;64.18;101039.84;5019971;28;20397;-82
2023/05/08 07:15:00;;;;;;;6.70;6.10;;;;;;;20.15;64.19;101045.00;5015415;28;20049;-79
2023/05/08 07:17:55;;;;;;;4.05;3.83;;;;;;;20.13;64.10;101052.84;5018374;28;20041;-79
2023/05/08 07:20:49;;;;;;;4.35;3.13;;;;;;;20.15;64.24;101053.28;5016586;28;20060;-81
2023/05/08 07:23:44;;;;;;;5.07;4.63;;;;;;;20.16;64.39;101048.56;5026758;28;20057;-81
2023/05/08 07:26:34;;;;;;;8.02;4.47;;;;;;;20.18;64.29;101057.25;5028612;28;20401;-81
2023/05/08 07:29:23;;;;;;;8.40;5.28;;;;;;;20.16;64.43;101048.56;5019554;28;20044;-81
2023/05/08 07:32:15;;;;;;;7.80;6.50;;;;;;;20.15;64.20;101053.28;5022108;28;20516;-80
2023/05/08 07:35:07;;;;;;;9.57;8.90;;;;;;;20.15;64.45;101056.06;5019036;28;20049;-80
2023/05/08 07:38:01;;;;;;;12.85;11.88;;;;;;;20.13;64.48;101061.16;5019222;28;20049;-80
2023/05/08 07:40:56;;;;;;;17.25;16.13;;;;;;;20.13;64.60;101061.16;5015990;28;20404;-79
2023/05/08 07:43:50;;;;;;;14.05;12.82;;;;;;;20.10;64.63;101072.16;5014915;28;20041;-80
2023/05/08 07:46:45;;;;;;;2.95;2.30;;;;;;;18.81;71.09;101068.19;4997694;28;20034;-80
2023/05/08 07:49:39;;;;;;;5.75;2.42;;;;;;;18.21;74.86;101075.09;4996948;28;20049;-80
2023/05/08 07:52:34;;;;;;;4.60;2.70;;;;;;;18.59;73.58;101075.19;5002138;28;20049;-80
2023/05/08 07:55:26;;;;;;;4.03;2.83;;;;;;;18.68;73.58;101075.81;4999708;28;20405;-79
2023/05/08 07:58:20;;;;;;;5.68;3.72;;;;;;;18.39;76.22;101070.78;4996791;28;20410;-77
2023/05/08 08:01:14;;;;;;;3.97;3.00;;;;;;;18.24;77.87;101071.59;5001331;28;20049;-78
2023/05/08 08:04:06;;;;;;;466.65;128.77;;;;;;;17.81;81.00;101075.31;4998518;28;20049;-78
2023/05/08 08:06:58;;;;;;;1974.43;607.30;;;;;;;17.38;84.44;101074.16;5006715;28;20038;-79
2023/05/08 08:09:48;;;;;;;271.25;74.10;;;;;;;17.15;85.19;101072.34;5017259;28;20034;-79
2023/05/08 08:12:40;;;;;;;9.65;7.78;;;;;;;17.32;85.17;101074.78;5017742;28;20417;-78
2023/05/08 08:15:34;;;;;;;7.13;4.68;;;;;;;17.44;86.14;101074.69;5015388;28;20049;-77
2023/05/08 08:18:29;;;;;;;6.15;4.25;;;;;;;17.35;84.19;101072.13;5019055;28;20053;-78
2023/05/08 08:21:24;;;;;;;4.32;3.92;;;;;;;17.04;85.43;101081.09;5016980;28;20060;-79
2023/05/08 08:24:18;;;;;;;29.08;21.95;;;;;;;17.15;86.65;101081.38;5019569;28;20065;-78
2023/05/08 08:27:10;;;;;;;312.08;127.90;;;;;;;17.25;85.81;101085.56;5017463;28;20038;-79
2023/05/08 08:30:05;;;;;;;1999.90;999.90;;;;;;;17.26;85.27;101081.69;5012816;28;20049;-79
2023/05/08 08:32:57;;;;;;;5.40;4.10;;;;;;;17.36;80.77;101081.16;5012510;28;20493;-79
2023/05/08 08:35:49;;;;;;;5.65;4.30;;;;;;;18.00;79.02;101089.13;5012119;28;20280;-79
2023/05/08 08:38:43;;;;;;;4.72;3.55;;;;;;;18.15;77.41;101085.56;5016143;28;20045;-80
2023/05/08 08:41:39;;;;;;;5.82;3.50;;;;;;;18.29;76.68;101088.66;5018013;28;20053;-80
2023/05/08 08:44:34;;;;;;;3.70;2.63;;;;;;;18.05;74.25;101088.06;5012909;28;20056;-79
2023/05/08 08:47:35;;;;;;;8.90;3.05;;;;;;;18.74;73.62;101088.09;5017792;28;20532;-80
2023/05/08 08:50:31;;;;;;;3.95;2.97;;;;;;;18.80;71.51;101089.44;5014660;28;20053;-81
2023/05/08 08:53:35;;;;;;;5.25;3.40;;;;;;;18.05;74.57;101093.56;5021245;28;20049;-81
2023/05/08 08:56:31;;;;;;;5.68;3.05;;;;;;;18.26;74.99;101094.09;5021921;28;20044;-82
2023/05/08 08:59:28;;;;;;;7.90;3.92;;;;;;;18.52;73.88;101091.53;5014902;28;20049;-81
2023/05/08 09:02:23;;;;;;;5.10;3.78;;;;;;;18.95;73.48;101084.19;5021540;28;20512;-81
2023/05/08 09:05:19;;;;;;;10.88;7.88;;;;;;;19.20;72.47;101097.31;5022544;28;20598;-81
2023/05/08 09:08:12;;;;;;;1999.90;999.90;;;;;;;19.46;70.20;101093.91;5020977;28;20045;-82
2023/05/08 09:11:06;;;;;;;1999.90;999.90;;;;;;;19.49;70.09;101104.25;5015880;28;20038;-75
2023/05/08 09:14:02;;;;;;;1999.90;999.90;;;;;;;19.55;69.23;101104.75;5009391;28;20050;-77
2023/05/08 09:16:56;;;;;;;1999.90;999.90;;;;;;;18.90;72.41;101106.53;5013922;28;20042;-76
2023/05/08 09:19:52;;;;;;;1800.28;851.42;;;;;;;18.19;74.70;101113.97;5013006;28;20042;-75
2023/05/08 09:22:46;;;;;;;5.65;4.35;;;;;;;18.46;75.08;101105.94;5016361;28;20049;-75
2023/05/08 09:25:49;;;;;;;8.40;5.65;;;;;;;18.08;76.70;101106.63;5015083;28;20057;-78
2023/05/08 09:28:44;;;;;;;5.10;3.72;;;;;;;18.19;77.10;101108.47;5016583;28;20416;-77
2023/05/08 09:31:39;;;;;;;9.35;5.55;;;;;;;18.29;76.51;101104.38;5015456;28;20568;-77
2023/05/08 09:34:34;;;;;;;8.50;4.43;;;;;;;18.61;73.93;101107.91;5013472;28;20052;-74
2023/05/08 09:37:29;;;;;;;6.72;5.13;;;;;;;18.46;75.45;101111.44;5016471;28;20041;-76
2023/05/08 09:40:25;;;;;;;8.38;6.00;;;;;;;18.60;75.65;101118.09;5012160;28;20061;-78
2023/05/08 09:43:20;;;;;;;7.68;5.30;;;;;;;18.04;78.05;101117.53;5017231;28;20040;-78
2023/05/08 09:46:30;;;;;;;7.53;4.93;;;;;;;18.01;79.53;101126.50;5014753;28;20053;-76
2023/05/08 09:49:25;;;;;;;5.90;5.07;;;;;;;18.49;76.09;101125.28;5013678;28;20113;-79
2023/05/08 09:52:20;;;;;;;9.55;5.40;;;;;;;18.31;78.11;101133.16;5013640;28;20405;-77
2023/05/08 09:55:17;;;;;;;15.25;5.25;;;;;;;18.36;76.92;101126.56;5012873;28;20501;-76
2023/05/08 09:58:10;;;;;;;11.45;4.88;;;;;;;18.23;76.63;101125.91;5015288;28;20052;-76
2023/05/08 10:01:04;;;;;;;7.75;5.47;;;;;;;18.18;78.50;101128.13;5013238;28;20041;-77
2023/05/08 10:03:56;;;;;;;6.95;5.30;;;;;;;18.02;78.93;101127.31;5009253;28;20049;-76
2023/05/08 10:06:57;;;;;;;7.90;5.82;;;;;;;18.42;76.06;101127.91;5015864;28;20045;-76
2023/05/08 10:10:02;;;;;;;7.45;6.03;;;;;;;18.11;77.76;101133.44;5014768;28;20049;-75
2023/05/08 10:12:57;;;;;;;9.77;6.07;;;;;;;18.05;79.37;101127.41;5012107;28;20044;-77
2023/05/08 10:15:55;;;;;;;10.90;6.03;;;;;;;18.35;78.47;101128.53;5015431;28;20049;-76
2023/05/08 10:19:00;;;;;;;8.40;5.35;;;;;;;18.43;75.52;101124.00;5012607;28;20049;-76
2023/05/08 10:21:54;;;;;;;5.25;4.22;;;;;;;19.01;73.20;101121.34;5013279;28;20405;-76
2023/05/08 10:24:54;;;;;;;10.48;6.22;;;;;;;19.22;71.78;101113.53;5009017;28;20060;-76
2023/05/08 10:27:54;;;;;;;7.43;5.00;;;;;;;19.62;70.59;101119.44;5011609;28;20049;-77
2023/05/08 10:30:53;;;;;;;247.27;169.65;;;;;;;20.43;68.44;101114.50;5009131;28;20048;-77
2023/05/08 10:33:51;;;;;;;1999.90;999.90;;;;;;;20.82;65.40;101109.56;5015150;28;20050;-78
2023/05/08 10:36:47;;;;;;;1777.13;660.47;;;;;;;20.23;66.50;101104.69;5011325;28;20038;-77
2023/05/08 10:39:44;;;;;;;1448.70;636.03;;;;;;;20.17;67.52;101106.16;5016861;28;20413;-77
2023/05/08 10:42:42;;;;;;;1442.03;535.03;;;;;;;20.03;68.04;101094.91;5009944;28;20041;-77
2023/05/08 10:45:35;;;;;;;5.85;4.55;;;;;;;19.95;66.26;101082.16;5005271;28;20037;-77
2023/05/08 10:48:48;;;;;;;6.10;4.43;;;;;;;20.38;65.95;101089.97;5011817;28;20037;-77
2023/05/08 10:51:57;;;;;;;5.18;4.30;;;;;;;20.29;67.39;101078.34;5001670;28;20053;-77
2023/05/08 10:55:22;;;;;;;4.85;3.75;;;;;;;20.47;66.61;101081.41;5011477;28;20045;-77
2023/05/08 10:58:29;;;;;;;7.10;4.30;;;;;;;20.10;67.71;101089.50;5016464;28;20061;-78
2023/05/08 11:01:24;;;;;;;7.25;4.22;;;;;;;20.29;66.63;101092.16;5011888;28;20045;-76
2023/05/08 11:04:29;;;;;;;6.40;3.97;;;;;;;19.98;65.98;101086.94;5007054;28;20061;-76
2023/05/08 11:07:21;;;;;;;5.22;4.38;;;;;;;19.94;67.33;101088.84;5011665;28;20041;-77
2023/05/08 11:10:17;;;;;;;4.80;4.10;;;;;;;19.93;67.37;101090.81;5010241;28;20041;-74
2023/05/08 11:13:13;;;;;;;6.30;4.00;;;;;;;19.97;66.95;101094.41;5011162;28;20061;-77
2023/05/08 11:16:08;;;;;;;5.13;3.58;;;;;;;19.92;66.90;101088.41;5010701;28;20412;-76
2023/05/08 11:19:17;;;;;;;;;;;;;;;19.66;67.00;101093.91;5010641;28;20057;-75
2023/05/08 11:22:24;;;;;;;9.50;4.97;;;;;;;19.68;66.06;101094.31;5014831;28;19918;-78
2023/05/08 11:25:19;;;;;;;6.35;4.13;;;;;;;19.58;64.93;101095.72;5015979;28;20049;-76
2023/05/08 11:28:15;;;;;;;8.60;4.13;;;;;;;19.51;66.13;101099.13;5018064;28;20129;-75
2023/05/08 11:31:16;;;;;;;6.35;3.60;;;;;;;19.47;63.63;101100.22;5016254;28;20568;-77
2023/05/08 11:34:40;;;;;;;6.07;3.47;;;;;;;19.82;63.66;101098.09;5019618;28;20045;-76
2023/05/08 11:37:35;;;;;;;5.32;3.63;;;;;;;19.39;66.19;101093.78;5014496;28;20519;-76
2023/05/08 11:40:50;;;;;;;5.93;4.22;;;;;;;19.23;67.44;101101.34;5015055;28;20409;-77
2023/05/08 11:44:06;;;;;;;84.13;20.17;;;;;;;19.74;66.78;101106.63;5012191;28;20404;-77
2023/05/08 11:46:58;;;;;;;;;;;;;;;19.55;67.20;101102.78;5021320;28;20050;-81
2023/05/08 11:49:50;;;;;;;220.15;191.48;;;;;;;19.45;69.53;101095.09;5017394;28;19914;-82
2023/05/08 11:52:43;;;;;;;1386.93;661.10;;;;;;;19.37;70.40;101096.09;5008685;28;20476;-81
2023/05/08 11:55:35;;;;;;;1999.90;999.90;;;;;;;19.36;70.86;101099.19;5022402;28;20050;-80
2023/05/08 11:58:29;;;;;;;1999.90;999.90;;;;;;;19.32;70.92;101090.06;5020669;28;20505;-81
2023/05/08 12:01:25;;;;;;;1999.90;999.90;;;;;;;19.39;70.00;101088.25;5018054;28;20041;-79
2023/05/08 12:04:19;;;;;;;1999.90;999.90;;;;;;;19.37;69.59;101079.53;5022841;28;20037;-82
2023/05/08 12:07:14;;;;;;;1999.90;999.90;;;;;;;19.58;69.45;101079.97;5017652;28;20042;-81
2023/05/08 12:10:07;;;;;;;30.40;25.17;;;;;;;19.64;67.50;101084.00;5014667;28;20416;-81
2023/05/08 12:13:02;;;;;;;6.10;4.40;;;;;;;19.35;64.95;101081.84;5010791;28;20042;-81
2023/05/08 12:15:59;;;;;;;4.07;3.50;;;;;;;19.55;64.54;101083.47;5021046;28;20048;-82
2023/05/08 12:18:53;;;;;;;10.55;4.72;;;;;;;19.68;63.99;101077.75;5018183;28;20551;-81
2023/05/08 12:21:57;;;;;;;7.47;4.80;;;;;;;19.73;65.60;101074.69;5014767;28;20068;-82
2023/05/08 12:24:52;;;;;;;9.05;4.40;;;;;;;19.76;64.47;101080.25;5016479;28;20061;-81
2023/05/08 12:27:47;;;;;;;7.35;4.72;;;;;;;19.59;65.29;101076.03;5016934;28;20056;-80
2023/05/08 12:30:48;;;;;;;5.68;4.72;;;;;;;19.50;65.42;101083.78;5014881;28;20053;-82
2023/05/08 12:33:49;;;;;;;6.47;3.92;;;;;;;19.67;64.19;101081.66;5022829;28;20690;-82
2023/05/08 12:36:43;;;;;;;5.25;4.40;;;;;;;19.72;63.51;101086.88;5023137;28;20049;-82
2023/05/08 12:39:39;;;;;;;4.20;3.38;;;;;;;19.64;61.57;101078.50;5005822;28;20057;-81
2023/05/08 12:42:51;;;;;;;6.80;4.25;;;;;;;19.69;61.69;101082.91;5024109;28;20053;-84
2023/05/08 12:45:45;;;;;;;5.13;4.57;;;;;;;19.77;62.17;101081.84;5017236;28;20065;-88
2023/05/08 12:48:40;;;;;;;6.75;5.43;;;;;;;19.83;63.13;101085.91;5010189;28;20046;-83
2023/05/08 12:51:33;;;;;;;10.20;5.25;;;;;;;19.78;63.42;101079.91;5022596;28;20413;-84
2023/05/08 12:54:33;;;;;;;9.85;5.07;;;;;;;19.77;62.41;101075.53;5016400;28;20543;-80
2023/05/08 12:57:26;;;;;;;6.93;4.28;;;;;;;19.85;62.06;101080.03;5018515;28;20045;-81
2023/05/08 13:00:43;;;;;;;6.38;5.00;;;;;;;19.84;62.84;101078.44;5016017;28;20052;-85
2023/05/08 13:03:38;;;;;;;8.40;5.68;;;;;;;19.87;60.51;101080.44;5019307;28;20046;-83
2023/05/08 13:06:30;;;;;;;8.15;4.07;;;;;;;20.02;61.19;101090.53;5017559;28;20052;-80
2023/05/08 13:09:26;;;;;;;6.60;4.80;;;;;;;20.02;61.91;101083.06;5018406;28;20053;-81
2023/05/08 13:12:21;;;;;;;12.43;5.40;;;;;;;20.00;62.67;101073.56;5022689;28;20064;-82
2023/05/08 13:15:14;;;;;;;7.97;5.10;;;;;;;20.05;61.84;101076.03;5022604;28;20057;-84
2023/05/08 13:18:08;;;;;;;8.35;5.03;;;;;;;20.04;61.01;101075.22;5018491;28;20049;-82
2023/05/08 13:21:03;;;;;;;8.85;5.57;;;;;;;20.10;60.67;101066.63;5015005;28;20049;-84
2023/05/08 13:23:57;;;;;;;7.15;5.38;;;;;;;20.16;60.79;101074.22;5022026;28;20045;-81
2023/05/08 13:26:52;;;;;;;7.97;5.05;;;;;;;20.13;60.52;101066.66;5017125;28;20064;-81
2023/05/08 13:29:44;;;;;;;9.13;6.35;;;;;;;20.12;61.12;101053.22;5010328;28;20041;-80
2023/05/08 13:32:39;;;;;;;8.20;6.30;;;;;;;20.07;61.59;101043.28;5012978;28;20057;-83
2023/05/08 13:35:39;;;;;;;5.82;3.50;;;;;;;20.10;55.77;101045.34;5015231;28;20037;-83
2023/05/08 13:38:34;;;;;;;4.00;2.95;;;;;;;20.13;56.03;101043.78;5018549;28;20052;-83